createdAt,value
2022-12-18T00:01:29.220Z,16.02
2022-12-18T00:03:57.117Z,14.93
2022-12-18T00:06:25.862Z,16.33
2022-12-18T00:08:52.666Z,15.80
2022-12-18T00:11:21.668Z,16.17
2022-12-18T00:13:48.807Z,15.67
2022-12-18T00:16:21.323Z,15.95
2022-12-18T00:18:49.249Z,14.68
2022-12-18T00:21:16.454Z,16.35
2022-12-18T00:23:45.161Z,17.27
2022-12-18T00:26:20.900Z,17.70
2022-12-18T00:28:48.114Z,16.92
2022-12-18T00:31:18.036Z,19.33
2022-12-18T00:36:12.848Z,17.80
2022-12-18T00:38:39.773Z,19.80
2022-12-18T00:41:08.513Z,18.48
2022-12-18T00:43:35.654Z,17.25
2022-12-18T00:46:02.566Z,17.65
2022-12-18T00:48:29.250Z,17.45
2022-12-18T00:50:55.875Z,18.00
2022-12-18T00:53:22.674Z,17.02
2022-12-18T00:55:49.308Z,17.00
2022-12-18T00:58:17.375Z,16.52
2022-12-18T01:00:44.373Z,17.02
2022-12-18T01:03:14.396Z,15.80
2022-12-18T01:05:42.790Z,14.35
2022-12-18T01:08:09.671Z,14.45
2022-12-18T01:10:36.450Z,16.48
2022-12-18T01:13:03.122Z,15.68
2022-12-18T01:15:29.794Z,16.45
2022-12-18T01:17:56.421Z,14.57
2022-12-18T01:20:23.047Z,15.32
2022-12-18T01:22:49.678Z,13.48
2022-12-18T01:25:16.522Z,13.25
2022-12-18T01:27:43.167Z,12.32
2022-12-18T01:30:10.250Z,13.30
2022-12-18T01:32:36.852Z,13.77
2022-12-18T01:35:04.390Z,14.05
2022-12-18T01:37:31.009Z,14.77
2022-12-18T01:39:57.638Z,14.70
2022-12-18T01:42:24.588Z,13.73
2022-12-18T01:45:03.821Z,14.82
2022-12-18T01:47:48.100Z,12.63
2022-12-18T01:50:18.691Z,13.52
2022-12-18T01:52:49.612Z,13.70
2022-12-18T01:55:19.194Z,14.65
2022-12-18T01:57:47.238Z,15.52
2022-12-18T02:00:18.041Z,13.60
2022-12-18T02:02:47.432Z,13.40
2022-12-18T02:05:18.899Z,13.10
2022-12-18T02:07:56.307Z,13.07
2022-12-18T02:10:35.030Z,12.00
2022-12-18T02:13:33.102Z,12.63
2022-12-18T02:16:11.914Z,13.63
2022-12-18T02:18:42.787Z,13.38
2022-12-18T02:21:28.356Z,14.02
2022-12-18T02:24:05.691Z,14.43
2022-12-18T02:26:46.492Z,12.43
2022-12-18T02:29:21.338Z,13.40
2022-12-18T02:31:58.488Z,14.75
2022-12-18T02:34:30.036Z,15.32
2022-12-18T02:36:59.272Z,15.48
2022-12-18T02:39:28.205Z,12.57
2022-12-18T02:41:55.040Z,15.27
2022-12-18T02:44:21.709Z,14.85
2022-12-18T02:46:52.583Z,14.80
2022-12-18T02:49:25.717Z,14.88
2022-12-18T02:51:57.180Z,15.48
2022-12-18T02:54:52.563Z,16.27
2022-12-18T02:57:25.594Z,15.40
2022-12-18T03:00:04.335Z,14.82
2022-12-18T03:02:45.107Z,14.98
2022-12-18T03:05:20.371Z,15.13
2022-12-18T03:08:03.703Z,13.05
2022-12-18T03:10:34.167Z,13.98
2022-12-18T03:13:10.281Z,13.35
2022-12-18T03:15:42.585Z,14.40
2022-12-18T03:18:15.840Z,12.52
2022-12-18T03:20:45.247Z,13.15
2022-12-18T03:23:17.538Z,14.77
2022-12-18T03:25:47.026Z,14.23
2022-12-18T03:28:18.512Z,14.93
2022-12-18T03:30:47.789Z,11.95
2022-12-18T03:33:28.740Z,12.52
2022-12-18T03:35:56.036Z,13.85
2022-12-18T03:38:23.000Z,12.68
2022-12-18T03:41:00.667Z,12.88
2022-12-18T03:43:37.378Z,12.13
2022-12-18T03:46:11.850Z,13.90
2022-12-18T03:48:57.307Z,14.35
2022-12-18T03:51:37.470Z,15.18
2022-12-18T03:54:06.273Z,14.27
2022-12-18T03:56:40.460Z,12.55
2022-12-18T03:59:08.791Z,14.35
2022-12-18T04:01:41.835Z,13.63
2022-12-18T04:04:11.268Z,12.05
2022-12-18T04:06:38.948Z,12.82
2022-12-18T04:09:06.284Z,14.35
2022-12-18T04:11:32.939Z,14.55
2022-12-18T04:13:59.908Z,15.02
2022-12-18T04:16:30.113Z,13.32
2022-12-18T04:18:56.816Z,13.38
2022-12-18T04:21:23.830Z,13.18
2022-12-18T04:23:50.906Z,12.80
2022-12-18T04:26:17.623Z,14.43
2022-12-18T04:28:44.291Z,12.98
2022-12-18T04:31:11.204Z,13.70
2022-12-18T04:33:38.364Z,12.38
2022-12-18T04:36:05.950Z,12.82
2022-12-18T04:38:33.437Z,12.70
2022-12-18T04:41:00.077Z,12.85
2022-12-18T04:43:26.781Z,11.57
2022-12-18T04:45:53.524Z,11.27
2022-12-18T04:48:21.233Z,10.48
2022-12-18T04:50:48.969Z,11.82
2022-12-18T04:53:15.651Z,11.13
2022-12-18T04:55:42.295Z,11.77
2022-12-18T04:58:08.968Z,13.10
2022-12-18T05:00:36.316Z,10.88
2022-12-18T05:03:03.838Z,12.85
2022-12-18T05:05:30.565Z,12.48
2022-12-18T05:07:57.215Z,12.25
2022-12-18T05:10:24.015Z,14.38
2022-12-18T05:13:00.066Z,13.00
2022-12-18T05:15:29.908Z,13.02
2022-12-18T05:17:57.935Z,13.15
2022-12-18T05:20:25.325Z,13.55
2022-12-18T05:22:53.004Z,12.73
2022-12-18T05:25:20.372Z,14.07
2022-12-18T05:27:47.781Z,13.60
2022-12-18T05:30:15.130Z,14.10
2022-12-18T05:32:42.389Z,13.90
2022-12-18T05:35:11.364Z,13.93
2022-12-18T05:37:42.730Z,12.73
2022-12-18T05:40:10.668Z,12.40
2022-12-18T05:42:37.427Z,14.43
2022-12-18T05:45:05.113Z,12.80
2022-12-18T05:47:31.909Z,13.20
2022-12-18T05:49:58.632Z,14.60
2022-12-18T05:52:25.562Z,13.98
2022-12-18T05:54:52.198Z,13.02
2022-12-18T05:57:18.876Z,12.68
2022-12-18T05:59:45.654Z,14.02
2022-12-18T06:02:12.462Z,12.45
2022-12-18T06:04:39.365Z,14.07
2022-12-18T06:07:06.042Z,13.32
2022-12-18T06:09:33.161Z,13.48
2022-12-18T06:12:00.165Z,12.55
2022-12-18T06:14:26.907Z,12.23
2022-12-18T06:16:53.754Z,13.68
2022-12-18T06:19:20.433Z,13.85
2022-12-18T06:21:47.870Z,12.85
2022-12-18T06:24:14.522Z,13.00
2022-12-18T06:26:41.212Z,12.75
2022-12-18T06:29:07.949Z,13.50
2022-12-18T06:31:34.840Z,12.10
2022-12-18T06:34:04.450Z,12.77
2022-12-18T06:38:58.627Z,10.40
2022-12-18T06:41:25.410Z,12.23
2022-12-18T06:43:55.567Z,11.40
2022-12-18T06:46:24.862Z,11.05
2022-12-18T06:48:51.696Z,11.60
2022-12-18T06:51:20.622Z,13.02
2022-12-18T06:53:47.457Z,11.53
2022-12-18T06:56:14.351Z,11.32
2022-12-18T06:58:41.355Z,12.63
2022-12-18T07:01:11.302Z,13.45
2022-12-18T07:03:39.953Z,12.77
2022-12-18T07:06:07.138Z,14.10
2022-12-18T07:08:34.707Z,13.40
2022-12-18T07:11:05.265Z,12.32
2022-12-18T07:13:32.190Z,12.45
2022-12-18T07:16:15.209Z,14.70
2022-12-18T07:18:45.704Z,13.55
2022-12-18T07:21:15.406Z,13.52
2022-12-18T07:23:42.708Z,13.48
2022-12-18T07:26:12.138Z,12.98
2022-12-18T07:28:40.147Z,14.32
2022-12-18T07:31:18.424Z,13.02
2022-12-18T07:33:45.936Z,13.40
2022-12-18T07:36:13.278Z,12.27
2022-12-18T07:38:40.442Z,14.32
2022-12-18T07:41:12.149Z,12.93
2022-12-18T07:43:40.448Z,13.40
2022-12-18T07:46:09.754Z,13.00
2022-12-18T07:48:36.599Z,11.38
2022-12-18T07:51:05.236Z,14.18
2022-12-18T07:53:32.804Z,13.88
2022-12-18T07:56:25.978Z,16.42
2022-12-18T07:58:48.344Z,14.13
2022-12-18T08:01:15.870Z,13.57
2022-12-18T08:03:43.308Z,14.10
2022-12-18T08:06:10.698Z,13.45
2022-12-18T08:08:37.942Z,14.50
2022-12-18T08:11:04.920Z,14.90
2022-12-18T08:13:32.592Z,14.48
2022-12-18T08:16:05.385Z,16.05
2022-12-18T08:18:34.902Z,15.80
2022-12-18T08:21:12.895Z,14.60
2022-12-18T08:23:43.098Z,13.88
2022-12-18T08:26:11.920Z,14.63
2022-12-18T08:28:38.763Z,13.70
2022-12-18T08:31:05.905Z,13.52
2022-12-18T08:33:33.511Z,14.20
2022-12-18T08:36:01.427Z,12.98
2022-12-18T08:38:28.599Z,12.73
2022-12-18T08:41:02.928Z,11.82
2022-12-18T08:43:49.498Z,11.38
2022-12-18T08:46:17.118Z,10.52
2022-12-18T08:48:44.805Z,13.07
2022-12-18T08:51:14.232Z,10.93
2022-12-18T08:53:42.119Z,11.93
2022-12-18T08:56:09.635Z,10.43
2022-12-18T08:58:36.611Z,10.13
2022-12-18T09:01:09.974Z,13.07
2022-12-18T09:03:38.078Z,10.63
2022-12-18T09:06:05.614Z,11.68
2022-12-18T09:08:32.593Z,9.77
2022-12-18T09:11:00.832Z,10.40
2022-12-18T09:13:28.997Z,11.48
2022-12-18T09:15:56.895Z,11.68
2022-12-18T09:18:24.783Z,11.55
2022-12-18T09:20:53.624Z,10.23
2022-12-18T09:23:20.985Z,11.45
2022-12-18T09:25:50.545Z,10.90
2022-12-18T09:28:19.438Z,11.35
2022-12-18T09:30:50.394Z,10.65
2022-12-18T09:33:18.109Z,11.55
2022-12-18T09:35:46.198Z,11.50
2022-12-18T09:38:16.597Z,11.18
2022-12-18T09:40:49.009Z,11.20
2022-12-18T09:43:30.281Z,13.00
2022-12-18T09:46:04.267Z,11.35
2022-12-18T09:48:40.761Z,12.57
2022-12-18T09:51:16.743Z,12.32
2022-12-18T09:53:48.524Z,10.90
2022-12-18T09:56:20.790Z,12.45
2022-12-18T09:58:56.256Z,13.23
2022-12-18T10:01:24.321Z,13.85
2022-12-18T10:03:52.589Z,14.52
2022-12-18T10:06:28.413Z,15.13
2022-12-18T10:09:13.995Z,14.45
2022-12-18T10:12:09.622Z,14.35
2022-12-18T10:14:39.159Z,15.10
2022-12-18T10:17:32.715Z,14.07
2022-12-18T10:20:14.754Z,12.98
2022-12-18T10:23:15.003Z,14.48
2022-12-18T10:26:07.492Z,13.82
2022-12-18T10:28:39.057Z,12.20
2022-12-18T10:31:18.513Z,14.77
2022-12-18T10:33:45.636Z,14.48
2022-12-18T10:36:12.825Z,14.98
2022-12-18T10:38:39.873Z,14.52
2022-12-18T10:41:36.067Z,12.98
2022-12-18T10:44:19.726Z,14.40
2022-12-18T10:46:50.499Z,13.27
2022-12-18T10:49:36.216Z,14.38
2022-12-18T10:52:17.796Z,14.32
2022-12-18T10:55:09.382Z,14.65
2022-12-18T10:57:42.775Z,13.55
2022-12-18T11:00:31.412Z,12.10
2022-12-18T11:02:58.673Z,14.02
2022-12-18T11:05:31.425Z,14.13
2022-12-18T11:07:59.728Z,14.85
2022-12-18T11:10:38.708Z,15.10
2022-12-18T11:13:21.297Z,13.35
2022-12-18T11:15:48.300Z,15.20
2022-12-18T11:18:35.639Z,15.07
2022-12-18T11:21:10.839Z,14.73
2022-12-18T11:23:45.720Z,14.95
2022-12-18T11:26:13.296Z,13.63
2022-12-18T11:29:08.272Z,13.70
2022-12-18T11:31:35.225Z,13.73
2022-12-18T11:34:29.151Z,17.65
2022-12-18T11:36:58.759Z,17.88
2022-12-18T11:39:40.329Z,19.90
2022-12-18T11:42:18.112Z,18.35
2022-12-18T11:44:54.993Z,21.80
2022-12-18T11:47:22.133Z,15.07
2022-12-18T11:49:52.986Z,14.73
2022-12-18T11:52:27.877Z,14.43
2022-12-18T11:55:00.176Z,12.90
2022-12-18T11:57:39.045Z,12.93
2022-12-18T12:00:16.228Z,13.25
2022-12-18T12:02:56.327Z,12.88
2022-12-18T12:05:51.036Z,13.50
2022-12-18T12:08:42.190Z,14.35
2022-12-18T12:11:28.370Z,15.68
2022-12-18T12:14:23.401Z,13.02
2022-12-18T12:16:55.441Z,14.15
2022-12-18T12:19:41.365Z,13.48
2022-12-18T12:22:23.662Z,13.82
2022-12-18T12:25:08.087Z,13.48
2022-12-18T12:27:52.834Z,14.13
2022-12-18T12:30:32.258Z,11.65
2022-12-18T12:33:15.820Z,12.10
2022-12-18T12:36:07.823Z,13.57
2022-12-18T12:38:49.795Z,13.27
2022-12-18T12:41:41.333Z,13.45
2022-12-18T12:44:14.440Z,13.95
2022-12-18T12:46:43.406Z,13.52
2022-12-18T12:49:40.571Z,16.65
2022-12-18T12:52:15.008Z,15.73
2022-12-18T12:54:42.936Z,15.88
2022-12-18T12:57:16.932Z,15.75
2022-12-18T13:00:04.748Z,15.75
2022-12-18T13:02:55.582Z,13.30
2022-12-18T13:05:33.098Z,15.68
2022-12-18T13:08:04.639Z,16.15
2022-12-18T13:10:38.101Z,15.15
2022-12-18T13:13:17.149Z,16.38
2022-12-18T13:15:49.600Z,16.00
2022-12-18T13:18:18.698Z,16.13
2022-12-18T13:20:56.461Z,16.40
2022-12-18T13:23:35.371Z,14.80
2022-12-18T13:26:11.202Z,14.77
2022-12-18T13:28:47.331Z,16.05
2022-12-18T13:34:26.256Z,15.43
2022-12-18T13:36:55.856Z,13.43
2022-12-18T13:39:26.668Z,13.88
2022-12-18T13:42:05.962Z,13.57
2022-12-18T13:44:41.633Z,14.27
2022-12-18T13:47:47.199Z,13.57
2022-12-18T13:53:23.144Z,11.82
2022-12-18T13:55:51.262Z,14.02
2022-12-18T13:58:17.989Z,13.90
2022-12-18T14:00:48.945Z,13.48
2022-12-18T14:03:23.447Z,12.75
2022-12-18T14:06:09.413Z,12.95
2022-12-18T14:08:43.988Z,13.68
2022-12-18T14:11:23.219Z,13.40
2022-12-18T14:13:50.310Z,15.65
2022-12-18T14:16:18.252Z,14.45
2022-12-18T14:19:01.515Z,12.27
2022-12-18T14:21:47.118Z,13.35
2022-12-18T14:24:20.173Z,12.68
2022-12-18T14:26:48.413Z,12.98
2022-12-18T14:29:31.176Z,13.52
2022-12-18T14:32:14.967Z,13.07
2022-12-18T14:34:44.383Z,12.45
2022-12-18T14:37:13.074Z,13.98
2022-12-18T14:39:39.901Z,14.77
2022-12-18T14:42:06.676Z,13.60
2022-12-18T14:44:39.252Z,14.38
2022-12-18T14:47:17.640Z,13.82
2022-12-18T14:49:44.748Z,15.52
2022-12-18T14:52:28.618Z,20.67
2022-12-18T14:54:55.330Z,19.58
2022-12-18T14:57:30.529Z,18.65
2022-12-18T15:00:06.911Z,18.60
2022-12-18T15:02:37.359Z,20.33
2022-12-18T15:05:26.670Z,20.88
2022-12-18T15:07:55.767Z,20.83
2022-12-18T15:10:25.179Z,19.43
2022-12-18T15:13:08.802Z,19.40
2022-12-18T15:15:38.310Z,18.92
2022-12-18T15:18:07.668Z,20.77
2022-12-18T15:20:41.970Z,22.85
2022-12-18T15:23:22.728Z,22.02
2022-12-18T15:26:02.120Z,21.52
2022-12-18T15:28:40.109Z,23.58
2022-12-18T15:31:10.655Z,24.27
2022-12-18T15:36:10.837Z,20.65
2022-12-18T15:38:37.704Z,21.35
2022-12-18T15:41:06.904Z,21.15
2022-12-18T15:43:39.386Z,19.17
2022-12-18T15:46:18.660Z,18.58
2022-12-18T15:48:48.088Z,18.83
2022-12-18T15:51:16.314Z,16.33
2022-12-18T15:53:43.969Z,16.77
2022-12-18T15:56:34.596Z,18.38
2022-12-18T15:59:03.105Z,17.58
2022-12-18T16:01:32.027Z,18.85
2022-12-18T16:03:58.837Z,20.03
2022-12-18T16:06:25.701Z,18.08
2022-12-18T16:08:52.354Z,21.23
2022-12-18T16:11:38.732Z,22.67
2022-12-18T16:14:18.444Z,21.60
2022-12-18T16:16:46.820Z,19.95
2022-12-18T16:19:13.542Z,21.52
2022-12-18T16:21:40.565Z,19.83
2022-12-18T16:24:16.206Z,19.90
2022-12-18T16:26:43.255Z,20.98
2022-12-18T16:29:10.809Z,21.48
2022-12-18T16:31:39.527Z,22.35
2022-12-18T16:34:20.302Z,23.05
2022-12-18T16:36:50.878Z,21.75
2022-12-18T16:39:18.399Z,20.17
2022-12-18T16:41:45.098Z,21.23
2022-12-18T16:44:12.142Z,21.80
2022-12-18T16:46:39.889Z,21.10
2022-12-18T16:49:06.603Z,23.77
2022-12-18T16:51:33.268Z,24.40
2022-12-18T16:53:59.901Z,25.85
2022-12-18T16:56:26.882Z,25.67
2022-12-18T16:58:59.746Z,24.98
2022-12-18T17:01:30.304Z,24.77
2022-12-18T17:04:02.258Z,26.30
2022-12-18T17:06:31.116Z,28.13
2022-12-18T17:09:01.476Z,27.98
2022-12-18T17:11:30.683Z,27.00
2022-12-18T17:13:57.955Z,28.63
2022-12-18T17:16:26.332Z,27.05
2022-12-18T17:18:53.743Z,28.77
2022-12-18T17:21:20.612Z,27.98
2022-12-18T17:23:47.368Z,25.52
2022-12-18T17:26:14.182Z,25.88
2022-12-18T17:28:42.084Z,26.52
2022-12-18T17:31:20.515Z,25.77
2022-12-18T17:33:48.244Z,24.95
2022-12-18T17:36:15.764Z,26.10
2022-12-18T17:38:43.212Z,25.15
2022-12-18T17:41:11.537Z,26.45
2022-12-18T17:43:45.926Z,28.15
2022-12-18T17:46:14.675Z,28.38
2022-12-18T17:48:41.545Z,27.52
2022-12-18T17:51:10.136Z,27.85
2022-12-18T17:53:41.772Z,28.70
2022-12-18T17:56:12.951Z,26.38
2022-12-18T17:58:40.606Z,26.75
2022-12-18T18:01:07.862Z,27.30
2022-12-18T18:03:39.454Z,27.50
2022-12-18T18:06:06.869Z,28.52
2022-12-18T18:08:35.153Z,26.38
2022-12-18T18:11:25.840Z,27.60
2022-12-18T18:14:01.754Z,30.67
2022-12-18T18:16:56.143Z,30.67
2022-12-18T18:19:24.941Z,34.60
2022-12-18T18:21:53.545Z,31.85
2022-12-18T18:24:25.824Z,31.98
2022-12-18T18:26:52.874Z,29.85
2022-12-18T18:29:22.123Z,31.80
2022-12-18T18:31:49.121Z,30.52
2022-12-18T18:34:22.144Z,29.92
2022-12-18T18:36:48.865Z,30.20
2022-12-18T18:39:15.523Z,28.88
2022-12-18T18:41:46.848Z,29.02
2022-12-18T18:44:19.049Z,29.75
2022-12-18T18:46:46.448Z,30.13
2022-12-18T18:49:14.511Z,31.00
2022-12-18T18:51:42.113Z,27.48
2022-12-18T18:54:09.331Z,26.50
2022-12-18T18:59:29.128Z,29.00
2022-12-18T19:01:58.838Z,27.73
2022-12-18T19:04:26.269Z,27.30
2022-12-18T19:06:53.843Z,26.50
2022-12-18T19:09:22.403Z,28.85
2022-12-18T19:12:08.024Z,24.65
2022-12-18T19:14:34.961Z,29.20
2022-12-18T19:17:01.700Z,30.90
2022-12-18T19:19:29.203Z,32.67
2022-12-18T19:21:56.006Z,32.92
2022-12-18T19:24:22.843Z,32.28
2022-12-18T19:26:49.629Z,32.33
2022-12-18T19:29:16.256Z,31.08
2022-12-18T19:31:43.122Z,32.53
2022-12-18T19:34:09.994Z,32.85
2022-12-18T19:36:39.125Z,31.85
2022-12-18T19:39:14.640Z,28.92
2022-12-18T19:41:42.631Z,30.20
2022-12-18T19:44:12.863Z,28.40
2022-12-18T19:46:41.666Z,28.77
2022-12-18T19:49:09.585Z,28.00
2022-12-18T19:51:36.741Z,30.35
2022-12-18T19:54:03.627Z,27.90
2022-12-18T19:56:33.318Z,28.13
2022-12-18T19:59:00.647Z,28.08
2022-12-18T20:01:28.545Z,29.40
2022-12-18T20:03:56.845Z,27.35
2022-12-18T20:06:34.150Z,28.25
2022-12-18T20:09:04.670Z,28.38
2022-12-18T20:11:32.972Z,25.48
2022-12-18T20:13:59.678Z,27.65
2022-12-18T20:16:26.389Z,25.27
2022-12-18T20:18:55.000Z,27.92
2022-12-18T20:21:21.883Z,25.52
2022-12-18T20:23:48.707Z,25.25
2022-12-18T20:26:15.583Z,25.50
2022-12-18T20:28:42.606Z,27.05
2022-12-18T20:31:13.569Z,25.48
2022-12-18T20:33:41.985Z,26.98
2022-12-18T20:36:14.420Z,29.08
2022-12-18T20:38:42.962Z,28.50
2022-12-18T20:41:16.269Z,26.75
2022-12-18T20:43:43.578Z,25.85
2022-12-18T20:46:12.753Z,27.02
2022-12-18T20:48:40.666Z,24.42
2022-12-18T20:51:10.225Z,24.15
2022-12-18T20:53:37.410Z,24.02
2022-12-18T20:56:14.620Z,27.20
2022-12-18T20:58:44.656Z,24.85
2022-12-18T21:01:14.080Z,25.13
2022-12-18T21:03:42.587Z,25.42
2022-12-18T21:06:10.565Z,24.83
2022-12-18T21:08:37.810Z,26.05
2022-12-18T21:11:38.378Z,24.42
2022-12-18T21:14:09.679Z,24.75
2022-12-18T21:16:37.337Z,25.45
2022-12-18T21:19:04.109Z,24.33
2022-12-18T21:21:32.448Z,26.10
2022-12-18T21:24:04.805Z,23.33
2022-12-18T21:26:31.943Z,25.70
2022-12-18T21:29:02.114Z,26.85
2022-12-18T21:31:31.919Z,28.08
2022-12-18T21:34:02.189Z,25.17
2022-12-18T21:36:30.297Z,26.88
2022-12-18T21:38:58.001Z,27.60
2022-12-18T21:41:45.262Z,26.77
2022-12-18T21:44:15.663Z,31.23
2022-12-18T21:46:44.856Z,30.15
2022-12-18T21:49:14.519Z,28.98
2022-12-18T21:51:41.380Z,28.50
2022-12-18T21:54:08.138Z,27.42
2022-12-18T21:56:52.678Z,26.52
2022-12-18T21:59:27.690Z,24.88
2022-12-18T22:01:58.814Z,25.50
2022-12-18T22:04:25.885Z,24.17
2022-12-18T22:06:53.136Z,23.80
2022-12-18T22:09:21.982Z,24.80
2022-12-18T22:11:50.182Z,23.98
2022-12-18T22:14:16.966Z,24.40
2022-12-18T22:16:43.887Z,25.23
2022-12-18T22:19:12.365Z,26.33
2022-12-18T22:21:43.249Z,27.15
2022-12-18T22:24:17.849Z,24.65
2022-12-18T22:26:46.666Z,23.38
2022-12-18T22:29:37.392Z,24.70
2022-12-18T22:32:05.347Z,22.60
2022-12-18T22:34:36.525Z,26.05
2022-12-18T22:37:03.590Z,23.17
2022-12-18T22:39:30.912Z,23.35
2022-12-18T22:41:58.299Z,20.50
2022-12-18T22:44:25.030Z,21.13
2022-12-18T22:47:05.965Z,19.65
2022-12-18T22:49:35.077Z,19.90
2022-12-18T22:52:03.433Z,19.65
2022-12-18T22:54:30.153Z,21.48
2022-12-18T22:56:57.140Z,23.48
2022-12-18T22:59:24.211Z,20.25
2022-12-18T23:01:58.564Z,19.80
2022-12-18T23:04:36.155Z,20.33
2022-12-18T23:07:05.144Z,22.10
2022-12-18T23:09:32.370Z,22.42
2022-12-18T23:11:59.115Z,22.67
2022-12-18T23:14:25.967Z,23.15
2022-12-18T23:16:53.197Z,21.52
2022-12-18T23:19:20.769Z,22.88
2022-12-18T23:21:47.944Z,22.38
2022-12-18T23:24:15.119Z,23.15
2022-12-18T23:26:42.901Z,22.17
2022-12-18T23:29:09.553Z,22.10
2022-12-18T23:31:38.707Z,22.85
2022-12-18T23:34:06.834Z,21.13
2022-12-18T23:36:45.816Z,22.40
2022-12-18T23:39:19.968Z,21.15
2022-12-18T23:41:56.331Z,21.08
2022-12-18T23:44:23.136Z,21.48
2022-12-18T23:46:49.956Z,23.05
2022-12-18T23:49:16.638Z,25.30
2022-12-18T23:51:43.490Z,25.45
2022-12-18T23:54:10.597Z,28.98
2022-12-18T23:56:37.378Z,26.95
2022-12-18T23:59:04.182Z,27.77
